createdAt,value
2022-11-16T00:04:13.056Z,58.60
2022-11-16T00:09:27.031Z,65.20
2022-11-16T00:14:35.914Z,64.30
2022-11-16T00:19:38.044Z,63.80
2022-11-16T00:24:39.926Z,73.50
2022-11-16T00:29:41.828Z,65.20
2022-11-16T00:34:43.688Z,62.20
2022-11-16T00:39:45.497Z,59.50
2022-11-16T00:44:47.983Z,61.00
2022-11-16T00:49:49.968Z,59.10
2022-11-16T00:54:52.355Z,61.40
2022-11-16T00:59:54.276Z,60.70
2022-11-16T01:04:56.601Z,64.80
2022-11-16T01:09:58.448Z,62.20
2022-11-16T01:15:00.284Z,59.30
2022-11-16T01:20:05.927Z,59.30
2022-11-16T01:25:09.585Z,62.80
2022-11-16T01:30:13.687Z,72.10
2022-11-16T01:35:20.826Z,70.90
2022-11-16T01:40:23.359Z,68.60
2022-11-16T01:45:38.114Z,66.50
2022-11-16T01:50:43.499Z,63.00
2022-11-16T01:55:47.649Z,70.00
2022-11-16T02:00:58.786Z,71.70
2022-11-16T02:06:15.981Z,71.30
2022-11-16T02:11:45.016Z,72.80
2022-11-16T02:17:27.994Z,61.80
2022-11-16T02:23:09.117Z,56.20
2022-11-16T02:28:39.859Z,48.30
2022-11-16T02:33:43.006Z,49.50
2022-11-16T02:39:08.031Z,47.40
2022-11-16T02:44:15.776Z,49.50
2022-11-16T02:49:19.942Z,49.50
2022-11-16T02:54:24.680Z,48.80
2022-11-16T02:59:33.432Z,48.80
2022-11-16T03:04:40.941Z,48.80
2022-11-16T03:09:45.695Z,49.30
2022-11-16T03:14:54.468Z,46.40
2022-11-16T03:20:08.181Z,48.00
2022-11-16T03:25:19.116Z,50.00
2022-11-16T03:30:27.850Z,44.00
2022-11-16T03:35:38.118Z,42.90
2022-11-16T03:40:43.044Z,43.90
2022-11-16T03:45:46.275Z,48.00
2022-11-16T03:50:48.717Z,44.20
2022-11-16T03:55:51.343Z,43.20
2022-11-16T04:00:53.884Z,41.80
2022-11-16T04:06:14.693Z,39.20
2022-11-16T04:11:39.097Z,37.10
2022-11-16T04:17:01.692Z,36.40
2022-11-16T04:22:57.797Z,37.00
2022-11-16T04:28:16.274Z,34.90
2022-11-16T04:33:40.846Z,33.40
2022-11-16T04:38:42.700Z,31.20
2022-11-16T04:43:44.605Z,27.20
2022-11-16T04:48:46.588Z,27.30
2022-11-16T04:53:48.452Z,27.20
2022-11-16T04:58:54.596Z,31.00
2022-11-16T05:03:56.613Z,32.00
2022-11-16T05:08:58.693Z,31.80
2022-11-16T05:14:00.712Z,30.60
2022-11-16T05:19:22.028Z,30.60
2022-11-16T05:24:36.073Z,34.60
2022-11-16T05:29:39.729Z,33.70
2022-11-16T05:34:42.423Z,32.90
2022-11-16T05:39:45.401Z,32.90
2022-11-16T05:44:47.712Z,34.10
2022-11-16T05:49:51.368Z,33.20
2022-11-16T05:54:53.746Z,38.30
2022-11-16T05:59:55.751Z,37.50
2022-11-16T06:04:57.654Z,40.90
2022-11-16T06:09:59.658Z,42.30
2022-11-16T06:15:01.851Z,35.30
2022-11-16T06:20:04.023Z,36.20
2022-11-16T06:25:09.301Z,31.80
2022-11-16T06:30:14.693Z,25.40
2022-11-16T06:35:17.039Z,22.90
2022-11-16T06:40:26.062Z,23.50
2022-11-16T06:45:29.245Z,24.20
2022-11-16T06:50:32.351Z,25.10
2022-11-16T06:55:34.330Z,24.00
2022-11-16T07:00:38.298Z,24.90
2022-11-16T07:05:42.285Z,25.20
2022-11-16T07:10:48.196Z,25.30
2022-11-16T07:15:50.332Z,25.20
2022-11-16T07:20:52.784Z,27.70
2022-11-16T07:26:00.235Z,30.30
2022-11-16T07:31:11.840Z,33.10
2022-11-16T07:36:15.069Z,35.00
2022-11-16T07:41:20.509Z,40.60
2022-11-16T07:46:47.445Z,41.50
2022-11-16T07:51:50.582Z,47.30
2022-11-16T07:57:10.378Z,41.60
2022-11-16T08:02:15.169Z,38.70
2022-11-16T08:07:19.168Z,41.40
2022-11-16T08:12:26.055Z,43.50
2022-11-16T08:17:28.230Z,44.40
2022-11-16T08:22:30.312Z,44.00
2022-11-16T08:27:33.415Z,45.20
2022-11-16T08:32:36.933Z,44.50
2022-11-16T08:37:39.238Z,42.60
2022-11-16T08:42:43.950Z,47.80
2022-11-16T08:47:46.664Z,50.30
2022-11-16T08:52:49.360Z,46.70
2022-11-16T08:57:52.244Z,49.40
2022-11-16T09:02:54.346Z,48.00
2022-11-16T09:07:56.409Z,53.00
2022-11-16T09:12:58.304Z,50.10
2022-11-16T09:18:00.181Z,50.20
2022-11-16T09:23:02.054Z,50.00
2022-11-16T09:28:04.041Z,50.80
2022-11-16T09:33:05.914Z,47.20
2022-11-16T09:38:10.001Z,41.90
2022-11-16T09:43:53.907Z,49.80
2022-11-16T09:49:03.050Z,55.00
2022-11-16T09:54:11.587Z,54.60
2022-11-16T09:59:26.058Z,54.80
2022-11-16T10:05:15.815Z,58.40
2022-11-16T10:10:40.677Z,56.30
2022-11-16T10:15:57.307Z,53.00
2022-11-16T10:21:28.995Z,60.80
2022-11-16T10:26:48.253Z,55.40
2022-11-16T10:32:14.484Z,61.10
2022-11-16T10:37:16.509Z,61.60
2022-11-16T10:42:40.809Z,58.80
2022-11-16T10:48:04.354Z,57.70
2022-11-16T10:53:06.204Z,60.10
2022-11-16T10:58:08.017Z,61.00
2022-11-16T11:03:12.313Z,64.90
2022-11-16T11:08:26.043Z,62.00
2022-11-16T11:13:27.998Z,81.20
2022-11-16T11:18:30.326Z,76.60
2022-11-16T11:23:47.013Z,74.60
2022-11-16T11:28:49.937Z,68.70
2022-11-16T11:33:55.919Z,65.40
2022-11-16T11:39:13.224Z,65.00
2022-11-16T11:44:18.193Z,59.20
2022-11-16T11:49:33.566Z,58.10
2022-11-16T11:54:46.090Z,53.80
2022-11-16T11:59:50.738Z,44.00
2022-11-16T12:05:18.280Z,49.00
2022-11-16T12:10:46.819Z,35.90
2022-11-16T12:15:55.043Z,35.90
2022-11-16T12:21:18.120Z,31.30
2022-11-16T12:26:43.677Z,27.90
2022-11-16T12:32:02.530Z,19.30
2022-11-16T12:37:36.656Z,18.00
2022-11-16T12:42:38.537Z,21.10
2022-11-16T12:48:07.345Z,21.20
2022-11-16T12:53:24.714Z,23.00
2022-11-16T12:59:04.545Z,22.50
2022-11-16T13:04:16.418Z,18.10
2022-11-16T13:10:11.908Z,20.80
2022-11-16T13:20:58.103Z,16.50
2022-11-16T13:26:23.978Z,17.20
2022-11-16T13:31:44.340Z,15.40
2022-11-16T13:36:46.952Z,16.60
2022-11-16T13:41:51.015Z,14.50
2022-11-16T13:47:03.726Z,15.90
2022-11-16T13:52:41.032Z,17.60
2022-11-16T13:57:34.168Z,16.80
2022-11-16T14:02:38.040Z,18.40
2022-11-16T14:07:44.370Z,19.30
2022-11-16T14:12:53.324Z,25.80
2022-11-16T14:17:57.061Z,23.90
2022-11-16T14:23:30.266Z,23.80
2022-11-16T14:28:53.188Z,24.10
2022-11-16T14:33:57.349Z,24.10
2022-11-16T14:39:20.243Z,24.90
2022-11-16T14:44:25.670Z,21.50
2022-11-16T14:49:27.647Z,19.80
2022-11-16T14:54:37.519Z,18.00
2022-11-16T14:59:38.636Z,18.00
2022-11-16T15:04:40.023Z,21.20
2022-11-16T15:09:46.589Z,21.90
2022-11-16T15:14:54.133Z,21.10
2022-11-16T15:24:59.814Z,20.90
2022-11-16T15:30:13.872Z,19.40
2022-11-16T15:35:30.191Z,19.00
2022-11-16T15:40:32.698Z,18.60
2022-11-16T15:45:36.883Z,17.10
2022-11-16T15:50:38.388Z,18.60
2022-11-16T15:55:40.246Z,18.20
2022-11-16T16:00:46.750Z,21.90
2022-11-16T16:05:48.933Z,26.20
2022-11-16T16:11:04.120Z,27.20
2022-11-16T16:16:28.388Z,23.40
2022-11-16T16:21:42.691Z,27.80
2022-11-16T16:26:43.852Z,28.90
2022-11-16T16:31:45.116Z,26.40
2022-11-16T16:36:46.218Z,27.40
2022-11-16T16:41:47.539Z,29.00
2022-11-16T16:46:48.695Z,28.60
2022-11-16T16:51:49.854Z,27.60
2022-11-16T16:56:51.431Z,28.10
2022-11-16T17:01:52.731Z,31.30
2022-11-16T17:06:54.016Z,31.50
2022-11-16T17:11:55.214Z,28.20
2022-11-16T17:16:56.448Z,26.10
2022-11-16T17:21:59.493Z,26.10
2022-11-16T17:27:00.951Z,35.50
2022-11-16T17:32:02.855Z,28.80
2022-11-16T17:37:04.193Z,27.00
2022-11-16T17:42:05.333Z,31.00
2022-11-16T17:47:06.902Z,32.60
2022-11-16T17:52:08.088Z,28.30
2022-11-16T17:57:09.348Z,36.30
2022-11-16T18:02:10.994Z,51.40
2022-11-16T18:07:12.381Z,38.10
2022-11-16T18:12:13.855Z,37.60
2022-11-16T18:17:15.121Z,42.90
2022-11-16T18:22:16.198Z,35.90
2022-11-16T18:27:17.338Z,30.10
2022-11-16T18:32:18.430Z,35.00
2022-11-16T18:37:19.553Z,35.70
2022-11-16T18:42:20.654Z,49.80
2022-11-16T18:47:21.979Z,25.50
2022-11-16T18:52:23.139Z,21.10
2022-11-16T18:57:24.409Z,21.20
2022-11-16T19:02:25.563Z,18.30
2022-11-16T19:07:26.750Z,17.40
2022-11-16T19:12:28.087Z,18.40
2022-11-16T19:17:29.350Z,18.30
2022-11-16T19:22:32.918Z,27.10
2022-11-16T19:27:34.131Z,16.90
2022-11-16T19:32:35.300Z,15.00
2022-11-16T19:37:36.860Z,14.40
2022-11-16T19:42:38.191Z,12.60
2022-11-16T19:47:39.309Z,15.20
2022-11-16T19:52:40.545Z,13.70
2022-11-16T19:57:41.811Z,11.00
2022-11-16T20:02:42.906Z,12.80
2022-11-16T20:07:44.334Z,16.70
2022-11-16T20:12:45.492Z,34.20
2022-11-16T20:17:46.564Z,21.70
2022-11-16T20:22:50.140Z,14.70
2022-11-16T20:27:51.243Z,16.70
2022-11-16T20:32:52.360Z,15.50
2022-11-16T20:37:53.488Z,13.20
2022-11-16T20:42:58.466Z,21.90
2022-11-16T20:47:59.910Z,16.50
2022-11-16T20:53:01.131Z,15.80
2022-11-16T20:58:02.291Z,18.00
2022-11-16T21:03:03.575Z,17.70
2022-11-16T21:08:05.226Z,16.50
2022-11-16T21:13:30.960Z,16.00
2022-11-16T21:18:32.638Z,19.50
2022-11-16T21:23:35.625Z,19.80
2022-11-16T21:28:37.620Z,20.70
2022-11-16T21:33:39.184Z,22.30
2022-11-16T21:38:40.960Z,21.90
2022-11-16T21:43:43.449Z,26.20
2022-11-16T21:48:46.389Z,22.20
2022-11-16T21:53:47.923Z,22.80
2022-11-16T21:58:49.957Z,27.10
2022-11-16T22:04:10.628Z,26.50
2022-11-16T22:09:17.205Z,26.00
2022-11-16T22:14:20.198Z,26.30
2022-11-16T22:19:21.319Z,23.60
2022-11-16T22:24:22.642Z,22.40
2022-11-16T22:29:24.210Z,24.70
2022-11-16T22:34:29.669Z,23.30
2022-11-16T22:39:30.967Z,19.60
2022-11-16T22:44:32.201Z,17.90
2022-11-16T22:49:33.668Z,20.60
2022-11-16T22:54:37.336Z,20.50
2022-11-16T22:59:38.392Z,23.90
2022-11-16T23:04:39.708Z,23.40
2022-11-16T23:09:40.870Z,23.40
2022-11-16T23:15:05.378Z,24.60
2022-11-16T23:20:26.296Z,24.10
2022-11-16T23:25:46.946Z,23.50
2022-11-16T23:30:48.021Z,22.60
2022-11-16T23:35:49.047Z,22.30
2022-11-16T23:40:53.469Z,24.70
2022-11-16T23:45:54.728Z,24.80
2022-11-16T23:50:57.328Z,21.60
2022-11-16T23:56:06.062Z,25.00
